• Join FlightAware (Why Join?)
  • Login
  • US Flag 
08:43AM EDT


 

Airport Tracker/Info


-or-


 

Live Flight TrackerFlight Track Log ✈ DAL6034 ✈ 21-Apr-2013 ✈ KLGA - KMHT

Flight Track Log - Related Links

Times and Time Zones

All times are in EDT time to prevent confusion due to time zone crossing. See the DAL6034 flight status page for this flight to view local times or setup timezone preferences in your user account.

Time Position Orientation Groundspeed Altitude Reporting Facility
EDT Latitude Longitude Course Direction KTS MPH feet Rate Location/Type
03:30PM 40.7667 -73.8500 27° Northeast 157 181 800  Level New York TRACON
03:31PM 40.7333 -73.8000 131° Southeast 214 246 2,800 2,100 Climbing New York TRACON
03:33PM 41.1159 -73.5958 28° Northeast  Level FlightAware Approximate
03:33PM 40.8406 -73.7158 31° Northeast 214 246 7,500  Level Boston Center
03:34PM 41.2016 -73.5236 33° Northeast  Level FlightAware Approximate
03:34PM 40.9078 -73.6731 26° Northeast 236 272 9,700  Level Boston Center
03:35PM 41.2879 -73.4526 27° Northeast  Level FlightAware Approximate
03:35PM 40.9833 -73.6278 24° Northeast 265 305 11,000  Level Boston Center
03:36PM 41.0650 -73.5769 25° Northeast 316 364 12,200 1,200 Climbing Boston Center
03:37PM 41.1447 -73.5233 27° Northeast 344 396 13,500 1,440 Climbing Boston Center
03:38PM 41.2433 -73.4642 24° Northeast 344 396 15,100 1,380 Climbing Boston Center
03:39PM 41.3272 -73.4103 26° Northeast 356 410 16,300 960 Climbing Boston Center
03:40PM 41.4339 -73.3456 24° Northeast 367 422 17,100 300 Climbing Boston Center
03:41PM 41.5264 -73.2608 34° Northeast 388 447 17,000 -60 Descending Boston Center
03:42PM 41.6083 -73.1453 46° Northeast 408 470 17,000  Level Boston Center
03:43PM 41.7025 -73.0600 34° Northeast 413 475 17,000  Level Boston Center
03:44PM 41.8050 -72.9914 27° Northeast 403 464 17,000  Level Boston Center
03:45PM 41.9033 -72.9228 27° Northeast 403 464 17,000  Level Boston Center
03:46PM 42.0036 -72.8508 28° Northeast 403 464 17,000  Level Boston Center
03:47PM 42.1061 -72.7814 27° Northeast 403 464 17,000  Level Boston Center
03:48PM 42.1958 -72.7175 28° Northeast 408 470 17,100  Climbing Boston Center
03:49PM 42.2939 -72.6478 28° Northeast 408 470 17,100 -60 Level Boston Center
03:50PM 42.3961 -72.5778 27° Northeast 408 470 17,000 -300 Descending Boston Center
03:51PM 42.4961 -72.5078 27° Northeast 408 470 16,600 -960 Descending Boston Center
03:52PM 42.5922 -72.4372 28° Northeast 402 463 15,100 -1,500 Descending Boston Center
03:53PM 42.6692 -72.3497 40° Northeast 383 441 13,600 -1,620 Descending Boston Center
03:54PM 42.7169 -72.2139 64° Northeast 354 407 11,900 -1,500 Descending Boston Center
03:55PM 42.7564 -72.1122 62° Northeast 342 394 10,600 -1,260 Descending Boston Center
03:56PM 42.7933 -72.0044 65° Northeast 301 346 9,400 -840 Descending Boston Center
03:57PM 42.8161 -71.9250 69° East 265 305 9,000 -780 Descending Boston Center
03:58PM 42.8008 -71.8119 100° East 254 292 7,900 -1,140 Descending Boston Center
03:59PM 42.7900 -71.7214 99° East 262 302 6,800 -1,200 Descending Boston Center
04:00PM 42.7747 -71.6228 102° East 251 289 5,500 -1,140 Descending Boston Center
04:01PM 42.7658 -71.5436 99° East 237 273 4,600 -900 Descending Boston Center
04:02PM 42.7753 -71.4472 82° East 237 273 3,800 -960 Descending Boston Center
04:03PM 42.7978 -71.3819 65° Northeast 221 254 2,700 -1,140 Descending Boston Center